sensor_id;sensor_type;location;lat;lon;timestamp;temperature;humidity
7214;DHT22;3648;50.614;13.830;2023-05-23T00:00:03;18.20;99.90
7214;DHT22;3648;50.614;13.830;2023-05-23T00:02:31;18.20;99.90
7214;DHT22;3648;50.614;13.830;2023-05-23T00:04:59;18.20;99.90
7214;DHT22;3648;50.614;13.830;2023-05-23T00:07:28;18.10;99.90
7214;DHT22;3648;50.614;13.830;2023-05-23T00:09:56;18.00;99.90
7214;DHT22;3648;50.614;13.830;2023-05-23T00:12:23;18.00;99.90
7214;DHT22;3648;50.614;13.830;2023-05-23T00:14:50;18.00;99.90
7214;DHT22;3648;50.614;13.830;2023-05-23T00:17:18;17.90;99.90
7214;DHT22;3648;50.614;13.830;2023-05-23T00:19:46;17.90;99.90
7214;DHT22;3648;50.614;13.830;2023-05-23T00:22:14;17.90;99.90
7214;DHT22;3648;50.614;13.830;2023-05-23T00:24:42;17.90;99.90
7214;DHT22;3648;50.614;13.830;2023-05-23T00:27:09;17.90;99.90
7214;DHT22;3648;50.614;13.830;2023-05-23T00:29:36;17.90;99.90
7214;DHT22;3648;50.614;13.830;2023-05-23T00:32:03;17.80;99.90
7214;DHT22;3648;50.614;13.830;2023-05-23T00:34:30;17.80;99.90
7214;DHT22;3648;50.614;13.830;2023-05-23T00:36:57;17.90;99.90
7214;DHT22;3648;50.614;13.830;2023-05-23T00:39:25;17.80;99.90
7214;DHT22;3648;50.614;13.830;2023-05-23T00:41:52;17.80;99.90
7214;DHT22;3648;50.614;13.830;2023-05-23T00:44:19;17.80;99.90
7214;DHT22;3648;50.614;13.830;2023-05-23T00:46:49;17.80;99.90
7214;DHT22;3648;50.614;13.830;2023-05-23T00:49:17;17.90;99.90
7214;DHT22;3648;50.614;13.830;2023-05-23T00:51:45;17.90;99.90
7214;DHT22;3648;50.614;13.830;2023-05-23T00:54:14;17.90;99.90
7214;DHT22;3648;50.614;13.830;2023-05-23T00:56:45;17.90;99.90
7214;DHT22;3648;50.614;13.830;2023-05-23T00:59:13;17.90;99.90
7214;DHT22;3648;50.614;13.830;2023-05-23T01:01:41;17.90;99.90
7214;DHT22;3648;50.614;13.830;2023-05-23T01:04:12;17.90;99.90
7214;DHT22;3648;50.614;13.830;2023-05-23T01:06:38;17.90;99.90
7214;DHT22;3648;50.614;13.830;2023-05-23T01:09:06;17.90;99.90
7214;DHT22;3648;50.614;13.830;2023-05-23T01:11:39;17.90;99.90
7214;DHT22;3648;50.614;13.830;2023-05-23T01:14:12;17.90;99.90
7214;DHT22;3648;50.614;13.830;2023-05-23T01:16:47;17.90;99.90
7214;DHT22;3648;50.614;13.830;2023-05-23T01:19:40;17.90;99.90
7214;DHT22;3648;50.614;13.830;2023-05-23T01:22:15;17.90;99.90
7214;DHT22;3648;50.614;13.830;2023-05-23T01:24:53;17.80;99.90
7214;DHT22;3648;50.614;13.830;2023-05-23T01:27:28;17.80;99.90
7214;DHT22;3648;50.614;13.830;2023-05-23T01:30:00;17.80;99.90
7214;DHT22;3648;50.614;13.830;2023-05-23T01:32:28;17.70;99.90
7214;DHT22;3648;50.614;13.830;2023-05-23T01:34:57;17.60;99.90
7214;DHT22;3648;50.614;13.830;2023-05-23T01:37:25;17.50;99.90
7214;DHT22;3648;50.614;13.830;2023-05-23T01:39:54;17.50;99.90
7214;DHT22;3648;50.614;13.830;2023-05-23T01:42:21;17.40;99.90
7214;DHT22;3648;50.614;13.830;2023-05-23T01:44:47;17.40;99.90
7214;DHT22;3648;50.614;13.830;2023-05-23T01:47:16;17.50;99.90
7214;DHT22;3648;50.614;13.830;2023-05-23T01:49:44;17.50;99.90
7214;DHT22;3648;50.614;13.830;2023-05-23T01:52:13;17.40;99.90
7214;DHT22;3648;50.614;13.830;2023-05-23T01:54:41;17.50;99.90
7214;DHT22;3648;50.614;13.830;2023-05-23T01:57:09;17.40;99.90
7214;DHT22;3648;50.614;13.830;2023-05-23T01:59:36;17.30;99.90
7214;DHT22;3648;50.614;13.830;2023-05-23T02:02:04;17.30;99.90
7214;DHT22;3648;50.614;13.830;2023-05-23T02:04:33;17.30;99.90
7214;DHT22;3648;50.614;13.830;2023-05-23T02:07:00;17.40;99.90
7214;DHT22;3648;50.614;13.830;2023-05-23T02:09:27;17.40;99.90
7214;DHT22;3648;50.614;13.830;2023-05-23T02:11:54;17.40;99.90
7214;DHT22;3648;50.614;13.830;2023-05-23T02:14:21;17.30;99.90
7214;DHT22;3648;50.614;13.830;2023-05-23T02:16:48;17.40;99.90
7214;DHT22;3648;50.614;13.830;2023-05-23T02:19:17;17.30;99.90
7214;DHT22;3648;50.614;13.830;2023-05-23T02:21:45;17.30;99.90
7214;DHT22;3648;50.614;13.830;2023-05-23T02:24:12;17.30;99.90
7214;DHT22;3648;50.614;13.830;2023-05-23T02:26:39;17.20;99.90
7214;DHT22;3648;50.614;13.830;2023-05-23T02:29:06;17.10;99.90
7214;DHT22;3648;50.614;13.830;2023-05-23T02:31:33;17.00;99.90
7214;DHT22;3648;50.614;13.830;2023-05-23T02:34:00;16.90;99.90
7214;DHT22;3648;50.614;13.830;2023-05-23T02:36:27;16.90;99.90
7214;DHT22;3648;50.614;13.830;2023-05-23T02:38:55;16.80;99.90
7214;DHT22;3648;50.614;13.830;2023-05-23T02:41:23;16.70;99.90
7214;DHT22;3648;50.614;13.830;2023-05-23T02:43:50;16.50;99.90
7214;DHT22;3648;50.614;13.830;2023-05-23T02:46:17;16.20;99.90
7214;DHT22;3648;50.614;13.830;2023-05-23T02:48:44;16.10;99.90
7214;DHT22;3648;50.614;13.830;2023-05-23T02:51:11;16.00;99.90
7214;DHT22;3648;50.614;13.830;2023-05-23T02:53:38;15.90;99.90
7214;DHT22;3648;50.614;13.830;2023-05-23T02:56:07;15.90;99.90
7214;DHT22;3648;50.614;13.830;2023-05-23T02:58:34;15.90;99.90
7214;DHT22;3648;50.614;13.830;2023-05-23T03:01:01;15.80;99.90
7214;DHT22;3648;50.614;13.830;2023-05-23T03:03:29;15.80;99.90
7214;DHT22;3648;50.614;13.830;2023-05-23T03:05:56;15.70;99.90
7214;DHT22;3648;50.614;13.830;2023-05-23T03:08:23;15.70;99.90
7214;DHT22;3648;50.614;13.830;2023-05-23T03:10:50;15.70;99.90
7214;DHT22;3648;50.614;13.830;2023-05-23T03:13:19;15.80;99.90
7214;DHT22;3648;50.614;13.830;2023-05-23T03:15:46;15.80;99.90
7214;DHT22;3648;50.614;13.830;2023-05-23T03:18:13;15.80;99.90
7214;DHT22;3648;50.614;13.830;2023-05-23T03:20:40;15.80;99.90
7214;DHT22;3648;50.614;13.830;2023-05-23T03:23:07;15.80;99.90
7214;DHT22;3648;50.614;13.830;2023-05-23T03:25:35;15.80;99.90
7214;DHT22;3648;50.614;13.830;2023-05-23T03:28:02;15.80;99.90
7214;DHT22;3648;50.614;13.830;2023-05-23T03:30:30;15.70;99.90
7214;DHT22;3648;50.614;13.830;2023-05-23T03:32:57;15.80;99.90
7214;DHT22;3648;50.614;13.830;2023-05-23T03:35:24;15.80;99.90
7214;DHT22;3648;50.614;13.830;2023-05-23T03:37:50;15.90;99.90
7214;DHT22;3648;50.614;13.830;2023-05-23T03:40:17;15.70;99.90
7214;DHT22;3648;50.614;13.830;2023-05-23T03:42:47;15.80;99.90
7214;DHT22;3648;50.614;13.830;2023-05-23T03:45:14;15.80;99.90
7214;DHT22;3648;50.614;13.830;2023-05-23T03:47:44;15.80;99.90
7214;DHT22;3648;50.614;13.830;2023-05-23T03:50:11;15.70;99.90
7214;DHT22;3648;50.614;13.830;2023-05-23T03:52:37;15.80;99.90
7214;DHT22;3648;50.614;13.830;2023-05-23T03:55:05;15.90;99.90
7214;DHT22;3648;50.614;13.830;2023-05-23T03:57:33;15.90;99.90
7214;DHT22;3648;50.614;13.830;2023-05-23T04:00:02;15.90;99.90
7214;DHT22;3648;50.614;13.830;2023-05-23T04:02:30;15.90;99.90
7214;DHT22;3648;50.614;13.830;2023-05-23T04:04:59;15.90;99.90
7214;DHT22;3648;50.614;13.830;2023-05-23T04:07:27;15.90;99.90
7214;DHT22;3648;50.614;13.830;2023-05-23T04:09:54;15.90;99.90
7214;DHT22;3648;50.614;13.830;2023-05-23T04:12:21;15.90;99.90
7214;DHT22;3648;50.614;13.830;2023-05-23T04:14:48;15.90;99.90
7214;DHT22;3648;50.614;13.830;2023-05-23T04:17:15;15.90;99.90
7214;DHT22;3648;50.614;13.830;2023-05-23T04:19:43;15.90;99.90
7214;DHT22;3648;50.614;13.830;2023-05-23T04:22:11;15.90;99.90
7214;DHT22;3648;50.614;13.830;2023-05-23T04:24:38;15.90;99.90
7214;DHT22;3648;50.614;13.830;2023-05-23T04:27:05;15.90;99.90
7214;DHT22;3648;50.614;13.830;2023-05-23T04:29:33;15.90;99.90
7214;DHT22;3648;50.614;13.830;2023-05-23T04:32:00;15.90;99.90
7214;DHT22;3648;50.614;13.830;2023-05-23T04:34:27;15.90;99.90
7214;DHT22;3648;50.614;13.830;2023-05-23T04:36:55;15.90;99.90
7214;DHT22;3648;50.614;13.830;2023-05-23T04:39:23;15.90;99.90
7214;DHT22;3648;50.614;13.830;2023-05-23T04:41:50;15.90;99.90
7214;DHT22;3648;50.614;13.830;2023-05-23T04:44:19;15.90;99.90
7214;DHT22;3648;50.614;13.830;2023-05-23T04:46:45;16.00;99.90
7214;DHT22;3648;50.614;13.830;2023-05-23T04:49:12;16.10;99.90
7214;DHT22;3648;50.614;13.830;2023-05-23T04:51:39;16.20;99.90
7214;DHT22;3648;50.614;13.830;2023-05-23T04:54:06;16.20;99.90
7214;DHT22;3648;50.614;13.830;2023-05-23T04:56:35;16.30;99.90
7214;DHT22;3648;50.614;13.830;2023-05-23T04:59:02;16.30;99.90
7214;DHT22;3648;50.614;13.830;2023-05-23T05:01:29;16.40;99.90
7214;DHT22;3648;50.614;13.830;2023-05-23T05:03:56;16.40;99.90
7214;DHT22;3648;50.614;13.830;2023-05-23T05:06:23;16.50;99.90
7214;DHT22;3648;50.614;13.830;2023-05-23T05:08:51;16.50;99.90
7214;DHT22;3648;50.614;13.830;2023-05-23T05:11:18;16.50;99.90
7214;DHT22;3648;50.614;13.830;2023-05-23T05:13:47;16.50;99.90
7214;DHT22;3648;50.614;13.830;2023-05-23T05:16:14;16.50;99.90
7214;DHT22;3648;50.614;13.830;2023-05-23T05:18:41;16.60;99.90
7214;DHT22;3648;50.614;13.830;2023-05-23T05:21:08;16.60;99.90
7214;DHT22;3648;50.614;13.830;2023-05-23T05:23:35;16.70;99.90
7214;DHT22;3648;50.614;13.830;2023-05-23T05:26:02;16.70;99.90
7214;DHT22;3648;50.614;13.830;2023-05-23T05:28:29;16.70;99.90
7214;DHT22;3648;50.614;13.830;2023-05-23T05:30:57;16.70;99.90
7214;DHT22;3648;50.614;13.830;2023-05-23T05:33:29;16.70;99.90
7214;DHT22;3648;50.614;13.830;2023-05-23T05:36:00;16.70;99.90
7214;DHT22;3648;50.614;13.830;2023-05-23T05:38:27;16.80;99.90
7214;DHT22;3648;50.614;13.830;2023-05-23T05:40:54;16.80;99.90
7214;DHT22;3648;50.614;13.830;2023-05-23T05:43:21;16.80;99.90
7214;DHT22;3648;50.614;13.830;2023-05-23T05:45:47;16.90;99.90
7214;DHT22;3648;50.614;13.830;2023-05-23T05:48:16;16.90;99.90
7214;DHT22;3648;50.614;13.830;2023-05-23T05:50:43;16.90;99.90
7214;DHT22;3648;50.614;13.830;2023-05-23T05:53:12;16.90;99.90
7214;DHT22;3648;50.614;13.830;2023-05-23T05:55:39;16.90;99.90
7214;DHT22;3648;50.614;13.830;2023-05-23T05:58:06;17.00;99.90
7214;DHT22;3648;50.614;13.830;2023-05-23T06:00:33;17.00;99.90
7214;DHT22;3648;50.614;13.830;2023-05-23T06:03:06;17.00;99.90
7214;DHT22;3648;50.614;13.830;2023-05-23T06:05:35;17.00;99.90
7214;DHT22;3648;50.614;13.830;2023-05-23T06:08:04;17.00;99.90
7214;DHT22;3648;50.614;13.830;2023-05-23T06:10:31;16.90;99.90
7214;DHT22;3648;50.614;13.830;2023-05-23T06:12:58;17.00;99.90
7214;DHT22;3648;50.614;13.830;2023-05-23T06:15:25;17.00;99.90
7214;DHT22;3648;50.614;13.830;2023-05-23T06:17:52;17.00;99.90
7214;DHT22;3648;50.614;13.830;2023-05-23T06:20:19;17.00;99.90
7214;DHT22;3648;50.614;13.830;2023-05-23T06:22:47;17.10;99.90
7214;DHT22;3648;50.614;13.830;2023-05-23T06:25:14;17.10;99.90
7214;DHT22;3648;50.614;13.830;2023-05-23T06:27:41;17.10;99.90
7214;DHT22;3648;50.614;13.830;2023-05-23T06:30:10;17.10;99.90
7214;DHT22;3648;50.614;13.830;2023-05-23T06:32:37;17.10;99.90
7214;DHT22;3648;50.614;13.830;2023-05-23T06:35:04;17.20;99.90
7214;DHT22;3648;50.614;13.830;2023-05-23T06:37:31;17.20;99.90
7214;DHT22;3648;50.614;13.830;2023-05-23T06:40:00;17.20;99.90
7214;DHT22;3648;50.614;13.830;2023-05-23T06:42:27;17.20;99.90
7214;DHT22;3648;50.614;13.830;2023-05-23T06:44:54;17.20;99.90
7214;DHT22;3648;50.614;13.830;2023-05-23T06:47:20;17.20;99.90
7214;DHT22;3648;50.614;13.830;2023-05-23T06:49:48;17.20;99.90
7214;DHT22;3648;50.614;13.830;2023-05-23T06:52:14;17.10;99.90
7214;DHT22;3648;50.614;13.830;2023-05-23T06:54:42;17.10;99.90
7214;DHT22;3648;50.614;13.830;2023-05-23T06:57:10;17.10;99.90
7214;DHT22;3648;50.614;13.830;2023-05-23T06:59:37;17.10;99.90
7214;DHT22;3648;50.614;13.830;2023-05-23T07:02:04;17.10;99.90
7214;DHT22;3648;50.614;13.830;2023-05-23T07:04:31;17.10;99.90
7214;DHT22;3648;50.614;13.830;2023-05-23T07:06:58;17.10;99.90
7214;DHT22;3648;50.614;13.830;2023-05-23T07:09:24;17.10;99.90
7214;DHT22;3648;50.614;13.830;2023-05-23T07:11:51;17.10;99.90
7214;DHT22;3648;50.614;13.830;2023-05-23T07:14:19;17.10;99.90
7214;DHT22;3648;50.614;13.830;2023-05-23T07:16:46;17.10;99.90
7214;DHT22;3648;50.614;13.830;2023-05-23T07:19:13;17.20;99.90
7214;DHT22;3648;50.614;13.830;2023-05-23T07:21:40;17.20;99.90
7214;DHT22;3648;50.614;13.830;2023-05-23T07:24:07;17.30;99.90
7214;DHT22;3648;50.614;13.830;2023-05-23T07:26:34;17.30;99.90
7214;DHT22;3648;50.614;13.830;2023-05-23T07:29:01;17.40;99.90
7214;DHT22;3648;50.614;13.830;2023-05-23T07:31:29;17.40;99.90
7214;DHT22;3648;50.614;13.830;2023-05-23T07:33:56;17.40;99.90
7214;DHT22;3648;50.614;13.830;2023-05-23T07:36:23;17.30;99.90
7214;DHT22;3648;50.614;13.830;2023-05-23T07:38:50;17.40;99.90
7214;DHT22;3648;50.614;13.830;2023-05-23T07:41:17;17.40;99.90
7214;DHT22;3648;50.614;13.830;2023-05-23T07:43:44;17.50;99.90
7214;DHT22;3648;50.614;13.830;2023-05-23T07:46:11;17.50;99.90
7214;DHT22;3648;50.614;13.830;2023-05-23T07:48:40;17.60;99.90
7214;DHT22;3648;50.614;13.830;2023-05-23T07:51:07;17.60;99.90
7214;DHT22;3648;50.614;13.830;2023-05-23T07:53:33;17.60;99.90
7214;DHT22;3648;50.614;13.830;2023-05-23T07:56:04;17.70;99.90
7214;DHT22;3648;50.614;13.830;2023-05-23T07:58:31;17.70;99.90
7214;DHT22;3648;50.614;13.830;2023-05-23T08:00:58;17.70;99.90
7214;DHT22;3648;50.614;13.830;2023-05-23T08:03:25;17.80;99.90
7214;DHT22;3648;50.614;13.830;2023-05-23T08:05:53;17.80;99.90
7214;DHT22;3648;50.614;13.830;2023-05-23T08:08:20;17.90;99.90
7214;DHT22;3648;50.614;13.830;2023-05-23T08:10:47;17.90;99.90
7214;DHT22;3648;50.614;13.830;2023-05-23T08:13:14;17.90;99.90
7214;DHT22;3648;50.614;13.830;2023-05-23T08:15:41;18.00;99.90
7214;DHT22;3648;50.614;13.830;2023-05-23T08:18:08;18.10;99.90
7214;DHT22;3648;50.614;13.830;2023-05-23T08:20:35;18.10;99.90
7214;DHT22;3648;50.614;13.830;2023-05-23T08:23:04;18.10;99.90
7214;DHT22;3648;50.614;13.830;2023-05-23T08:25:30;18.20;99.90
7214;DHT22;3648;50.614;13.830;2023-05-23T08:27:58;18.20;99.90
7214;DHT22;3648;50.614;13.830;2023-05-23T08:30:26;18.20;99.90
7214;DHT22;3648;50.614;13.830;2023-05-23T08:32:53;18.20;99.90
7214;DHT22;3648;50.614;13.830;2023-05-23T08:35:20;18.20;99.90
7214;DHT22;3648;50.614;13.830;2023-05-23T08:37:47;18.30;99.90
7214;DHT22;3648;50.614;13.830;2023-05-23T08:40:19;18.20;99.90
7214;DHT22;3648;50.614;13.830;2023-05-23T08:42:46;18.20;99.90
7214;DHT22;3648;50.614;13.830;2023-05-23T08:45:14;18.10;99.90
7214;DHT22;3648;50.614;13.830;2023-05-23T08:47:42;18.10;99.90
7214;DHT22;3648;50.614;13.830;2023-05-23T08:50:11;18.00;99.90
7214;DHT22;3648;50.614;13.830;2023-05-23T08:52:42;17.90;99.90
7214;DHT22;3648;50.614;13.830;2023-05-23T08:55:10;17.90;99.90
7214;DHT22;3648;50.614;13.830;2023-05-23T08:57:38;17.90;99.90
7214;DHT22;3648;50.614;13.830;2023-05-23T09:00:09;17.90;99.90
7214;DHT22;3648;50.614;13.830;2023-05-23T09:02:39;17.90;99.90
7214;DHT22;3648;50.614;13.830;2023-05-23T09:05:07;18.00;99.90
7214;DHT22;3648;50.614;13.830;2023-05-23T09:07:35;18.00;99.90
7214;DHT22;3648;50.614;13.830;2023-05-23T09:10:03;18.00;99.90
7214;DHT22;3648;50.614;13.830;2023-05-23T09:12:31;18.00;99.90
7214;DHT22;3648;50.614;13.830;2023-05-23T09:15:00;18.10;99.90
7214;DHT22;3648;50.614;13.830;2023-05-23T09:17:26;18.10;99.90
7214;DHT22;3648;50.614;13.830;2023-05-23T09:19:53;18.20;99.90
7214;DHT22;3648;50.614;13.830;2023-05-23T09:22:23;18.20;99.90
7214;DHT22;3648;50.614;13.830;2023-05-23T09:24:51;18.20;99.90
7214;DHT22;3648;50.614;13.830;2023-05-23T09:27:19;18.20;99.90
7214;DHT22;3648;50.614;13.830;2023-05-23T09:29:45;18.30;99.90
7214;DHT22;3648;50.614;13.830;2023-05-23T09:32:16;18.30;99.90
7214;DHT22;3648;50.614;13.830;2023-05-23T09:34:54;18.30;99.90
7214;DHT22;3648;50.614;13.830;2023-05-23T09:37:28;18.40;99.90
7214;DHT22;3648;50.614;13.830;2023-05-23T09:39:56;18.40;99.90
7214;DHT22;3648;50.614;13.830;2023-05-23T09:42:23;18.50;99.90
7214;DHT22;3648;50.614;13.830;2023-05-23T09:44:50;18.50;99.90
7214;DHT22;3648;50.614;13.830;2023-05-23T09:47:18;18.60;99.90
7214;DHT22;3648;50.614;13.830;2023-05-23T09:49:45;18.60;99.90
7214;DHT22;3648;50.614;13.830;2023-05-23T09:52:12;18.70;99.90
7214;DHT22;3648;50.614;13.830;2023-05-23T09:54:39;18.70;99.90
7214;DHT22;3648;50.614;13.830;2023-05-23T09:57:09;18.80;99.90
7214;DHT22;3648;50.614;13.830;2023-05-23T09:59:39;18.80;99.90
7214;DHT22;3648;50.614;13.830;2023-05-23T10:02:10;18.80;99.90
7214;DHT22;3648;50.614;13.830;2023-05-23T10:04:39;18.90;99.90
7214;DHT22;3648;50.614;13.830;2023-05-23T10:07:12;18.90;99.90
7214;DHT22;3648;50.614;13.830;2023-05-23T10:09:41;18.90;99.90
7214;DHT22;3648;50.614;13.830;2023-05-23T10:12:35;18.90;99.90
7214;DHT22;3648;50.614;13.830;2023-05-23T10:15:07;18.90;99.90
7214;DHT22;3648;50.614;13.830;2023-05-23T10:17:50;18.90;99.90
7214;DHT22;3648;50.614;13.830;2023-05-23T10:20:24;19.00;99.90
7214;DHT22;3648;50.614;13.830;2023-05-23T10:22:51;18.90;99.90
7214;DHT22;3648;50.614;13.830;2023-05-23T10:25:18;19.00;99.90
7214;DHT22;3648;50.614;13.830;2023-05-23T10:27:47;19.00;99.90
7214;DHT22;3648;50.614;13.830;2023-05-23T10:30:15;19.00;99.90
7214;DHT22;3648;50.614;13.830;2023-05-23T10:32:42;19.10;99.90
7214;DHT22;3648;50.614;13.830;2023-05-23T10:35:16;19.20;99.90
7214;DHT22;3648;50.614;13.830;2023-05-23T10:37:49;19.30;99.90
7214;DHT22;3648;50.614;13.830;2023-05-23T10:40:27;19.50;99.90
7214;DHT22;3648;50.614;13.830;2023-05-23T10:43:01;19.50;99.90
7214;DHT22;3648;50.614;13.830;2023-05-23T10:45:39;19.60;99.90
7214;DHT22;3648;50.614;13.830;2023-05-23T10:48:20;19.80;99.90
7214;DHT22;3648;50.614;13.830;2023-05-23T10:51:01;19.90;99.90
7214;DHT22;3648;50.614;13.830;2023-05-23T10:53:31;19.90;99.90
7214;DHT22;3648;50.614;13.830;2023-05-23T10:56:00;19.80;99.90
7214;DHT22;3648;50.614;13.830;2023-05-23T10:58:29;19.60;99.90
7214;DHT22;3648;50.614;13.830;2023-05-23T11:00:59;19.50;99.90
7214;DHT22;3648;50.614;13.830;2023-05-23T11:03:34;19.40;99.90
7214;DHT22;3648;50.614;13.830;2023-05-23T11:06:02;19.30;99.90
7214;DHT22;3648;50.614;13.830;2023-05-23T11:08:38;19.10;99.90
7214;DHT22;3648;50.614;13.830;2023-05-23T11:11:06;19.00;99.90
7214;DHT22;3648;50.614;13.830;2023-05-23T11:13:53;18.90;99.90
7214;DHT22;3648;50.614;13.830;2023-05-23T11:16:24;18.90;99.90
7214;DHT22;3648;50.614;13.830;2023-05-23T11:18:52;18.90;99.90
7214;DHT22;3648;50.614;13.830;2023-05-23T11:21:23;18.90;99.90
7214;DHT22;3648;50.614;13.830;2023-05-23T11:23:53;18.90;99.90
7214;DHT22;3648;50.614;13.830;2023-05-23T11:26:30;18.90;99.90
7214;DHT22;3648;50.614;13.830;2023-05-23T11:28:58;18.80;99.90
7214;DHT22;3648;50.614;13.830;2023-05-23T11:31:25;18.80;99.90
7214;DHT22;3648;50.614;13.830;2023-05-23T11:33:52;18.70;99.90
7214;DHT22;3648;50.614;13.830;2023-05-23T11:36:20;18.70;99.90
7214;DHT22;3648;50.614;13.830;2023-05-23T11:38:48;18.70;99.90
7214;DHT22;3648;50.614;13.830;2023-05-23T11:41:16;18.80;99.90
7214;DHT22;3648;50.614;13.830;2023-05-23T11:43:49;18.90;99.90
7214;DHT22;3648;50.614;13.830;2023-05-23T11:46:16;18.90;99.90
7214;DHT22;3648;50.614;13.830;2023-05-23T11:48:44;19.00;99.90
7214;DHT22;3648;50.614;13.830;2023-05-23T11:51:11;19.00;99.90
7214;DHT22;3648;50.614;13.830;2023-05-23T11:53:39;18.90;99.90
7214;DHT22;3648;50.614;13.830;2023-05-23T11:56:06;19.00;99.90
7214;DHT22;3648;50.614;13.830;2023-05-23T11:58:36;18.90;99.90
7214;DHT22;3648;50.614;13.830;2023-05-23T12:01:04;18.90;99.90
7214;DHT22;3648;50.614;13.830;2023-05-23T12:03:32;18.80;99.90
7214;DHT22;3648;50.614;13.830;2023-05-23T12:05:59;18.80;99.90
7214;DHT22;3648;50.614;13.830;2023-05-23T12:08:26;18.70;99.90
7214;DHT22;3648;50.614;13.830;2023-05-23T12:10:56;18.50;99.90
7214;DHT22;3648;50.614;13.830;2023-05-23T12:13:25;18.30;99.90
7214;DHT22;3648;50.614;13.830;2023-05-23T12:15:55;18.30;99.90
7214;DHT22;3648;50.614;13.830;2023-05-23T12:18:22;18.30;99.90
7214;DHT22;3648;50.614;13.830;2023-05-23T12:20:50;18.30;99.90
7214;DHT22;3648;50.614;13.830;2023-05-23T12:23:18;18.40;99.90
7214;DHT22;3648;50.614;13.830;2023-05-23T12:25:49;18.50;99.90
7214;DHT22;3648;50.614;13.830;2023-05-23T12:28:17;18.70;99.90
7214;DHT22;3648;50.614;13.830;2023-05-23T12:30:45;18.80;99.90
7214;DHT22;3648;50.614;13.830;2023-05-23T12:33:14;18.90;99.90
7214;DHT22;3648;50.614;13.830;2023-05-23T12:35:43;19.10;99.90
7214;DHT22;3648;50.614;13.830;2023-05-23T12:38:14;19.30;99.90
7214;DHT22;3648;50.614;13.830;2023-05-23T12:40:42;19.40;99.90
7214;DHT22;3648;50.614;13.830;2023-05-23T12:43:09;19.40;99.90
7214;DHT22;3648;50.614;13.830;2023-05-23T12:45:36;19.60;99.90
7214;DHT22;3648;50.614;13.830;2023-05-23T12:48:03;19.70;99.90
7214;DHT22;3648;50.614;13.830;2023-05-23T12:50:32;19.80;99.90
7214;DHT22;3648;50.614;13.830;2023-05-23T12:52:59;20.00;99.90
7214;DHT22;3648;50.614;13.830;2023-05-23T12:55:25;20.10;99.90
7214;DHT22;3648;50.614;13.830;2023-05-23T12:57:53;20.10;99.90
7214;DHT22;3648;50.614;13.830;2023-05-23T13:00:20;20.20;99.90
7214;DHT22;3648;50.614;13.830;2023-05-23T13:02:47;20.10;99.90
7214;DHT22;3648;50.614;13.830;2023-05-23T13:05:14;20.00;99.90
7214;DHT22;3648;50.614;13.830;2023-05-23T13:07:43;19.80;99.90
7214;DHT22;3648;50.614;13.830;2023-05-23T13:10:10;19.70;99.90
7214;DHT22;3648;50.614;13.830;2023-05-23T13:12:38;19.60;99.90
7214;DHT22;3648;50.614;13.830;2023-05-23T13:15:06;19.60;99.90
7214;DHT22;3648;50.614;13.830;2023-05-23T13:17:33;19.60;99.90
7214;DHT22;3648;50.614;13.830;2023-05-23T13:19:59;19.50;99.90
7214;DHT22;3648;50.614;13.830;2023-05-23T13:22:29;19.40;99.90
7214;DHT22;3648;50.614;13.830;2023-05-23T13:24:57;19.30;99.90
7214;DHT22;3648;50.614;13.830;2023-05-23T13:27:24;19.30;99.90
7214;DHT22;3648;50.614;13.830;2023-05-23T13:29:51;19.30;99.90
7214;DHT22;3648;50.614;13.830;2023-05-23T13:32:18;19.20;99.90
7214;DHT22;3648;50.614;13.830;2023-05-23T13:34:45;19.20;99.90
7214;DHT22;3648;50.614;13.830;2023-05-23T13:37:12;19.10;99.90
7214;DHT22;3648;50.614;13.830;2023-05-23T13:39:39;19.10;99.90
7214;DHT22;3648;50.614;13.830;2023-05-23T13:42:07;19.10;99.90
7214;DHT22;3648;50.614;13.830;2023-05-23T13:44:34;19.10;99.90
7214;DHT22;3648;50.614;13.830;2023-05-23T13:47:09;19.10;99.90
7214;DHT22;3648;50.614;13.830;2023-05-23T13:49:36;19.10;99.90
7214;DHT22;3648;50.614;13.830;2023-05-23T13:52:03;19.00;99.90
7214;DHT22;3648;50.614;13.830;2023-05-23T13:54:31;19.00;99.90
7214;DHT22;3648;50.614;13.830;2023-05-23T13:56:58;18.90;99.90
7214;DHT22;3648;50.614;13.830;2023-05-23T13:59:26;18.80;99.90
7214;DHT22;3648;50.614;13.830;2023-05-23T14:01:54;18.80;99.90
7214;DHT22;3648;50.614;13.830;2023-05-23T14:04:20;18.90;99.90
7214;DHT22;3648;50.614;13.830;2023-05-23T14:06:48;18.80;99.90
7214;DHT22;3648;50.614;13.830;2023-05-23T14:09:15;18.70;99.90
7214;DHT22;3648;50.614;13.830;2023-05-23T14:11:43;18.70;99.90
7214;DHT22;3648;50.614;13.830;2023-05-23T14:14:10;18.60;99.90
7214;DHT22;3648;50.614;13.830;2023-05-23T14:16:38;18.40;99.90
7214;DHT22;3648;50.614;13.830;2023-05-23T14:19:05;18.50;99.90
7214;DHT22;3648;50.614;13.830;2023-05-23T14:21:32;18.80;99.90
7214;DHT22;3648;50.614;13.830;2023-05-23T14:24:00;18.70;99.90
7214;DHT22;3648;50.614;13.830;2023-05-23T14:26:27;18.80;99.90
7214;DHT22;3648;50.614;13.830;2023-05-23T14:28:54;18.80;99.90
7214;DHT22;3648;50.614;13.830;2023-05-23T14:31:21;18.70;99.90
7214;DHT22;3648;50.614;13.830;2023-05-23T14:33:50;18.70;99.90
7214;DHT22;3648;50.614;13.830;2023-05-23T14:36:17;18.70;99.90
7214;DHT22;3648;50.614;13.830;2023-05-23T14:38:44;18.80;99.90
7214;DHT22;3648;50.614;13.830;2023-05-23T14:41:12;18.70;99.90
7214;DHT22;3648;50.614;13.830;2023-05-23T14:43:39;18.70;99.90
7214;DHT22;3648;50.614;13.830;2023-05-23T14:46:06;18.60;99.90
7214;DHT22;3648;50.614;13.830;2023-05-23T14:48:33;18.60;99.90
7214;DHT22;3648;50.614;13.830;2023-05-23T14:51:02;18.40;99.90
7214;DHT22;3648;50.614;13.830;2023-05-23T14:53:29;18.40;99.90
7214;DHT22;3648;50.614;13.830;2023-05-23T14:55:56;18.30;99.90
7214;DHT22;3648;50.614;13.830;2023-05-23T14:58:23;18.30;99.90
7214;DHT22;3648;50.614;13.830;2023-05-23T15:00:50;18.20;99.90
7214;DHT22;3648;50.614;13.830;2023-05-23T15:03:17;18.20;99.90
7214;DHT22;3648;50.614;13.830;2023-05-23T15:05:44;18.10;99.90
7214;DHT22;3648;50.614;13.830;2023-05-23T15:08:13;18.10;99.90
7214;DHT22;3648;50.614;13.830;2023-05-23T15:10:41;18.00;99.90
7214;DHT22;3648;50.614;13.830;2023-05-23T15:13:09;17.80;99.90
7214;DHT22;3648;50.614;13.830;2023-05-23T15:15:36;17.80;99.90
7214;DHT22;3648;50.614;13.830;2023-05-23T15:18:05;17.70;99.90
7214;DHT22;3648;50.614;13.830;2023-05-23T15:20:35;17.70;99.90
7214;DHT22;3648;50.614;13.830;2023-05-23T15:23:03;17.70;99.90
7214;DHT22;3648;50.614;13.830;2023-05-23T15:25:31;17.70;99.90
7214;DHT22;3648;50.614;13.830;2023-05-23T15:27:58;17.70;99.90
7214;DHT22;3648;50.614;13.830;2023-05-23T15:30:25;17.80;99.90
7214;DHT22;3648;50.614;13.830;2023-05-23T15:32:52;17.80;99.90
7214;DHT22;3648;50.614;13.830;2023-05-23T15:35:19;17.70;99.90
7214;DHT22;3648;50.614;13.830;2023-05-23T15:37:46;17.70;99.90
7214;DHT22;3648;50.614;13.830;2023-05-23T15:40:13;17.50;99.90
7214;DHT22;3648;50.614;13.830;2023-05-23T15:42:41;17.50;99.90
7214;DHT22;3648;50.614;13.830;2023-05-23T15:45:09;17.50;99.90
7214;DHT22;3648;50.614;13.830;2023-05-23T15:47:36;17.60;99.90
7214;DHT22;3648;50.614;13.830;2023-05-23T15:50:04;17.60;99.90